createdAt,value
2023-07-17T00:00:17.734Z,52.93
2023-07-17T00:01:18.002Z,53.29
2023-07-17T00:02:17.699Z,52.76
2023-07-17T00:03:17.813Z,54.12
2023-07-17T00:04:17.745Z,52.68
2023-07-17T00:05:17.705Z,52.54
2023-07-17T00:06:17.718Z,57.03
2023-07-17T00:07:17.667Z,53.03
2023-07-17T00:08:17.674Z,53.19
2023-07-17T00:09:17.694Z,53.57
2023-07-17T00:10:17.682Z,53.71
2023-07-17T00:11:18.006Z,54.43
2023-07-17T00:12:17.675Z,52.78
2023-07-17T00:13:17.671Z,52.82
2023-07-17T00:14:18.739Z,52.91
2023-07-17T00:15:17.636Z,54.51
2023-07-17T00:16:17.644Z,60.93
2023-07-17T00:17:17.671Z,53.90
2023-07-17T00:18:17.666Z,53.36
2023-07-17T00:19:17.630Z,52.73
2023-07-17T00:20:17.617Z,53.09
2023-07-17T00:21:17.815Z,52.91
2023-07-17T00:22:17.594Z,52.83
2023-07-17T00:23:17.633Z,53.21
2023-07-17T00:24:17.591Z,53.92
2023-07-17T00:25:17.580Z,53.48
2023-07-17T00:26:17.637Z,58.90
2023-07-17T00:27:17.615Z,53.40
2023-07-17T00:28:17.601Z,53.45
2023-07-17T00:29:17.604Z,58.26
2023-07-17T00:30:17.533Z,53.37
2023-07-17T00:31:17.752Z,53.24
2023-07-17T00:32:17.527Z,60.99
2023-07-17T00:33:17.555Z,55.94
2023-07-17T00:34:51.333Z,53.59
2023-07-17T00:35:17.505Z,53.63
2023-07-17T00:36:17.504Z,53.02
2023-07-17T00:37:17.534Z,57.07
2023-07-17T00:38:17.540Z,59.02
2023-07-17T00:39:17.538Z,56.68
2023-07-17T00:40:17.523Z,55.37
2023-07-17T00:41:17.777Z,53.18
2023-07-17T00:42:17.497Z,53.10
2023-07-17T00:43:17.498Z,52.52
2023-07-17T00:44:17.501Z,53.29
2023-07-17T00:45:17.497Z,52.91
2023-07-17T00:46:17.504Z,53.36
2023-07-17T00:47:17.473Z,52.92
2023-07-17T00:48:17.467Z,53.32
2023-07-17T00:49:17.472Z,52.94
2023-07-17T00:50:18.474Z,52.98
2023-07-17T00:51:17.760Z,52.58
2023-07-17T00:52:17.440Z,52.68
2023-07-17T00:53:17.446Z,53.33
2023-07-17T00:54:17.457Z,58.13
2023-07-17T00:55:17.409Z,53.22
2023-07-17T00:56:17.400Z,53.48
2023-07-17T00:57:17.421Z,60.70
2023-07-17T00:58:17.404Z,53.20
2023-07-17T00:59:17.395Z,53.62
2023-07-17T01:00:17.390Z,53.55
2023-07-17T01:01:17.800Z,58.17
2023-07-17T01:02:17.413Z,56.86
2023-07-17T01:03:17.445Z,53.53
2023-07-17T01:04:17.427Z,53.45
2023-07-17T01:05:17.397Z,54.54
2023-07-17T01:06:17.338Z,53.18
2023-07-17T01:07:17.346Z,53.43
2023-07-17T01:08:17.348Z,54.48
2023-07-17T01:09:17.385Z,59.74
2023-07-17T01:10:17.324Z,55.39
2023-07-17T01:11:17.592Z,58.23
2023-07-17T01:12:17.309Z,53.59
2023-07-17T01:13:17.319Z,53.13
2023-07-17T01:14:17.323Z,52.88
2023-07-17T01:15:17.319Z,53.13
2023-07-17T01:16:17.335Z,53.37
2023-07-17T01:17:17.343Z,53.97
2023-07-17T01:18:17.313Z,54.37
2023-07-17T01:19:17.300Z,54.49
2023-07-17T01:20:17.297Z,63.73
2023-07-17T01:21:17.620Z,54.25
2023-07-17T01:22:17.303Z,54.10
2023-07-17T01:23:17.255Z,53.34
2023-07-17T01:24:17.322Z,53.14
2023-07-17T01:25:17.301Z,53.51
2023-07-17T01:26:17.258Z,53.54
2023-07-17T01:27:17.280Z,53.59
2023-07-17T01:28:17.349Z,58.27
2023-07-17T01:29:17.282Z,54.30
2023-07-17T01:30:18.253Z,53.90
2023-07-17T01:31:17.480Z,53.56
2023-07-17T01:32:17.244Z,60.77
2023-07-17T01:33:17.225Z,55.12
2023-07-17T01:34:17.254Z,59.26
2023-07-17T01:35:17.228Z,53.78
2023-07-17T01:36:17.217Z,60.02
2023-07-17T01:37:17.200Z,57.13
2023-07-17T01:38:17.215Z,60.56
2023-07-17T01:39:17.209Z,53.26
2023-07-17T01:40:17.233Z,52.92
2023-07-17T01:41:17.348Z,53.20
2023-07-17T01:42:17.177Z,52.74
2023-07-17T01:43:17.160Z,52.80
2023-07-17T01:44:17.168Z,53.01
2023-07-17T01:45:17.204Z,53.29
2023-07-17T01:46:17.226Z,59.17
2023-07-17T01:47:17.143Z,68.36
2023-07-17T01:48:17.142Z,55.27
2023-07-17T01:49:17.134Z,54.13
2023-07-17T01:50:17.128Z,54.20
2023-07-17T01:51:17.545Z,54.37
2023-07-17T01:52:17.140Z,58.34
2023-07-17T01:53:17.105Z,59.45
2023-07-17T01:54:17.098Z,54.49
2023-07-17T01:55:17.139Z,53.91
2023-07-17T01:56:17.161Z,54.20
2023-07-17T01:57:17.142Z,62.47
2023-07-17T01:58:17.086Z,64.33
2023-07-17T01:59:17.768Z,56.11
2023-07-17T02:00:17.066Z,59.30
2023-07-17T02:01:17.333Z,58.09
2023-07-17T02:02:17.099Z,54.63
2023-07-17T02:03:17.079Z,60.37
2023-07-17T02:04:17.100Z,54.94
2023-07-17T02:05:17.185Z,59.33
2023-07-17T02:06:17.040Z,53.94
2023-07-17T02:07:17.079Z,56.82
2023-07-17T02:08:17.045Z,59.13
2023-07-17T02:09:17.037Z,55.03
2023-07-17T02:10:18.023Z,54.84
2023-07-17T02:11:17.327Z,54.83
2023-07-17T02:12:17.034Z,54.71
2023-07-17T02:13:17.039Z,60.91
2023-07-17T02:14:16.987Z,64.12
2023-07-17T02:15:16.991Z,54.56
2023-07-17T02:16:17.008Z,62.29
2023-07-17T02:17:17.008Z,65.86
2023-07-17T02:18:17.012Z,62.53
2023-07-17T02:19:16.969Z,64.32
2023-07-17T02:20:16.998Z,56.35
2023-07-17T02:21:17.193Z,61.42
2023-07-17T02:22:16.938Z,65.65
2023-07-17T02:23:16.964Z,55.44
2023-07-17T02:24:16.989Z,61.41
2023-07-17T02:25:16.919Z,59.24
2023-07-17T02:26:16.932Z,55.88
2023-07-17T02:27:17.919Z,57.94
2023-07-17T02:28:16.935Z,61.53
2023-07-17T02:29:16.929Z,59.99
2023-07-17T02:30:16.884Z,54.87
2023-07-17T02:31:17.379Z,54.74
2023-07-17T02:32:16.947Z,54.94
2023-07-17T02:33:16.882Z,59.86
2023-07-17T02:34:16.875Z,59.49
2023-07-17T02:35:16.921Z,55.52
2023-07-17T02:36:16.896Z,60.36
2023-07-17T02:37:16.857Z,63.26
2023-07-17T02:38:16.872Z,55.69
2023-07-17T02:39:16.841Z,59.19
2023-07-17T02:40:16.892Z,63.34
2023-07-17T02:41:17.377Z,66.35
2023-07-17T02:42:16.851Z,56.38
2023-07-17T02:43:16.836Z,55.23
2023-07-17T02:44:16.830Z,59.64
2023-07-17T02:45:16.867Z,57.27
2023-07-17T02:46:16.903Z,63.91
2023-07-17T02:47:16.823Z,59.58
2023-07-17T02:48:16.831Z,59.90
2023-07-17T02:49:16.815Z,56.64
2023-07-17T02:50:16.814Z,60.64
2023-07-17T02:51:17.133Z,59.97
2023-07-17T02:52:16.770Z,57.01
2023-07-17T02:53:16.783Z,60.45
2023-07-17T02:54:16.794Z,56.88
2023-07-17T02:55:16.790Z,65.00
2023-07-17T02:56:16.779Z,62.33
2023-07-17T02:57:16.792Z,58.24
2023-07-17T02:58:16.763Z,57.39
2023-07-17T02:59:16.750Z,62.53
2023-07-17T03:00:16.798Z,61.09
2023-07-17T03:01:17.196Z,58.66
2023-07-17T03:02:16.758Z,70.19
2023-07-17T03:03:16.732Z,69.28
2023-07-17T03:04:16.757Z,64.50
2023-07-17T03:05:16.737Z,69.05
2023-07-17T03:06:16.719Z,60.55
2023-07-17T03:07:16.734Z,60.80
2023-07-17T03:08:16.686Z,66.19
2023-07-17T03:09:16.697Z,57.56
2023-07-17T03:10:16.695Z,57.15
2023-07-17T03:11:16.900Z,62.57
2023-07-17T03:12:16.691Z,64.58
2023-07-17T03:13:16.687Z,66.56
2023-07-17T03:14:16.683Z,61.81
2023-07-17T03:15:16.651Z,58.31
2023-07-17T03:16:16.723Z,69.58
2023-07-17T03:17:16.700Z,66.47
2023-07-17T03:18:16.654Z,57.26
2023-07-17T03:19:16.646Z,69.08
2023-07-17T03:20:16.649Z,62.08
2023-07-17T03:21:17.039Z,66.80
2023-07-17T03:22:16.631Z,61.94
2023-07-17T03:23:16.645Z,69.39
2023-07-17T03:24:16.632Z,64.94
2023-07-17T03:25:16.610Z,62.18
2023-07-17T03:26:16.606Z,68.75
2023-07-17T03:27:16.586Z,68.75
2023-07-17T03:28:16.611Z,64.73
2023-07-17T03:29:16.606Z,67.34
2023-07-17T03:30:16.586Z,66.30
2023-07-17T03:31:16.839Z,68.65
2023-07-17T03:32:16.626Z,65.20
2023-07-17T03:33:16.704Z,72.55
2023-07-17T03:34:16.537Z,72.94
2023-07-17T03:35:16.569Z,61.14
2023-07-17T03:36:16.543Z,65.08
2023-07-17T03:37:16.550Z,67.67
2023-07-17T03:38:16.544Z,69.54
2023-07-17T03:39:16.497Z,63.55
2023-07-17T03:40:16.503Z,69.51
2023-07-17T03:41:16.689Z,63.76
2023-07-17T03:42:16.537Z,69.71
2023-07-17T03:43:16.486Z,65.98
2023-07-17T03:44:16.463Z,68.68
2023-07-17T03:45:16.462Z,69.20
2023-07-17T03:46:16.485Z,62.76
2023-07-17T03:47:16.591Z,65.52
2023-07-17T03:48:16.461Z,58.74
2023-07-17T03:49:16.427Z,63.53
2023-07-17T03:50:16.474Z,67.31
2023-07-17T03:51:16.538Z,61.97
2023-07-17T03:52:16.524Z,59.43
2023-07-17T03:53:16.414Z,63.39
2023-07-17T03:54:16.461Z,69.77
2023-07-17T03:55:16.416Z,69.92
2023-07-17T03:56:16.416Z,67.11
2023-07-17T03:57:16.416Z,59.00
2023-07-17T03:58:16.401Z,67.37
2023-07-17T03:59:16.424Z,72.59
2023-07-17T04:00:16.394Z,65.60
2023-07-17T04:01:16.815Z,69.47
2023-07-17T04:02:16.406Z,70.61
2023-07-17T04:03:16.453Z,65.12
2023-07-17T04:04:16.397Z,70.97
2023-07-17T04:05:16.378Z,69.05
2023-07-17T04:06:16.364Z,71.94
2023-07-17T04:07:16.394Z,71.29
2023-07-17T04:08:16.338Z,67.35
2023-07-17T04:09:16.445Z,69.43
2023-07-17T04:10:16.385Z,71.25
2023-07-17T04:11:16.579Z,65.25
2023-07-17T04:12:16.396Z,72.47
2023-07-17T04:13:16.327Z,78.21
2023-07-17T04:14:16.299Z,69.96
2023-07-17T04:15:16.331Z,75.50
2023-07-17T04:16:16.334Z,69.06
2023-07-17T04:17:16.371Z,72.33
2023-07-17T04:18:16.292Z,66.85
2023-07-17T04:19:16.290Z,61.19
2023-07-17T04:20:16.282Z,65.24
2023-07-17T04:21:16.374Z,71.73
2023-07-17T04:22:16.261Z,73.20
2023-07-17T04:23:16.266Z,69.55
2023-07-17T04:24:16.335Z,66.85
2023-07-17T04:25:16.255Z,70.78
2023-07-17T04:26:16.254Z,69.60
2023-07-17T04:27:16.272Z,66.12
2023-07-17T04:28:16.229Z,71.35
2023-07-17T04:29:16.235Z,68.85
2023-07-17T04:30:16.263Z,70.27
2023-07-17T04:31:16.403Z,70.49
2023-07-17T04:32:16.255Z,66.88
2023-07-17T04:33:16.205Z,77.05
2023-07-17T04:34:16.189Z,77.45
2023-07-17T04:35:16.205Z,71.93
2023-07-17T04:36:16.169Z,68.92
2023-07-17T04:37:16.244Z,68.89
2023-07-17T04:38:16.174Z,69.50
2023-07-17T04:39:16.144Z,74.62
2023-07-17T04:40:16.914Z,71.25
2023-07-17T04:41:16.274Z,74.67
2023-07-17T04:42:16.139Z,71.78
2023-07-17T04:43:16.188Z,72.38
2023-07-17T04:44:16.201Z,72.15
2023-07-17T04:45:16.119Z,72.02
2023-07-17T04:46:16.152Z,65.18
2023-07-17T04:47:16.155Z,69.22
2023-07-17T04:48:16.194Z,71.54
2023-07-17T04:49:16.132Z,70.06
2023-07-17T04:50:16.131Z,70.01
2023-07-17T04:51:16.248Z,71.85
2023-07-17T04:52:16.096Z,71.60
2023-07-17T04:53:16.086Z,73.53
2023-07-17T04:54:16.090Z,69.22
2023-07-17T04:55:16.091Z,69.24
2023-07-17T04:56:16.078Z,67.91
2023-07-17T04:57:16.065Z,75.29
2023-07-17T04:58:16.039Z,68.71
2023-07-17T04:59:16.081Z,70.65
2023-07-17T05:00:16.078Z,70.56
2023-07-17T05:01:16.471Z,69.30
2023-07-17T05:02:16.032Z,73.56
2023-07-17T05:03:16.238Z,70.60
2023-07-17T05:04:16.087Z,72.90
2023-07-17T05:05:16.060Z,73.06
2023-07-17T05:06:15.999Z,73.37
2023-07-17T05:07:16.021Z,75.90
2023-07-17T05:08:15.995Z,71.36
2023-07-17T05:09:16.005Z,75.76
2023-07-17T05:10:16.132Z,71.72
2023-07-17T05:11:16.127Z,75.27
2023-07-17T05:12:15.990Z,73.47
2023-07-17T05:13:16.000Z,69.78
2023-07-17T05:14:15.959Z,71.58
2023-07-17T05:15:16.149Z,74.09
2023-07-17T05:16:16.014Z,70.61
2023-07-17T05:17:15.955Z,74.38
2023-07-17T05:18:15.950Z,76.28
2023-07-17T05:19:15.947Z,66.69
2023-07-17T05:20:15.981Z,69.88
2023-07-17T05:21:16.340Z,72.87
2023-07-17T05:22:15.935Z,78.13
2023-07-17T05:23:15.961Z,76.50
2023-07-17T05:24:15.902Z,69.58
2023-07-17T05:25:15.926Z,75.35
2023-07-17T05:26:15.935Z,76.98
2023-07-17T05:27:15.893Z,71.66
2023-07-17T05:28:15.896Z,72.40
2023-07-17T05:29:15.864Z,76.36
2023-07-17T05:30:15.928Z,71.81
2023-07-17T05:31:16.137Z,76.61
2023-07-17T05:32:15.871Z,75.26
2023-07-17T05:33:15.849Z,69.68
2023-07-17T05:34:15.859Z,73.69
2023-07-17T05:35:19.183Z,66.22
2023-07-17T05:36:15.842Z,74.23
2023-07-17T05:37:15.840Z,66.77
2023-07-17T05:38:15.833Z,69.25
2023-07-17T05:39:15.825Z,72.86
2023-07-17T05:40:15.860Z,70.45
2023-07-17T05:41:15.994Z,75.55
2023-07-17T05:42:15.843Z,74.91
2023-07-17T05:43:15.794Z,73.04
2023-07-17T05:44:15.810Z,65.13
2023-07-17T05:45:15.815Z,70.91
2023-07-17T05:46:15.813Z,77.23
2023-07-17T05:47:15.795Z,73.80
2023-07-17T05:48:15.788Z,72.01
2023-07-17T05:49:15.787Z,72.96
2023-07-17T05:50:15.774Z,76.47
2023-07-17T05:51:16.017Z,75.55
2023-07-17T05:52:15.773Z,74.74
2023-07-17T05:53:15.779Z,79.89
2023-07-17T05:54:15.759Z,74.17
2023-07-17T05:55:15.779Z,76.25
2023-07-17T05:56:15.742Z,71.36
2023-07-17T05:57:15.708Z,72.00
2023-07-17T05:58:15.716Z,72.57
2023-07-17T05:59:15.737Z,74.06
2023-07-17T06:00:15.727Z,70.80
2023-07-17T06:01:15.923Z,76.03
2023-07-17T06:02:15.692Z,68.03
2023-07-17T06:03:15.720Z,71.90
2023-07-17T06:04:15.739Z,65.24
2023-07-17T06:05:15.806Z,73.78
2023-07-17T06:06:15.666Z,72.14
2023-07-17T06:07:15.681Z,70.44
2023-07-17T06:08:15.826Z,83.56
2023-07-17T06:09:15.656Z,76.66
2023-07-17T06:10:15.674Z,69.90
2023-07-17T06:11:16.013Z,73.82
2023-07-17T06:12:15.675Z,76.06
2023-07-17T06:13:17.239Z,69.55
2023-07-17T06:14:15.653Z,78.22
2023-07-17T06:15:15.792Z,76.66
2023-07-17T06:16:15.705Z,70.57
2023-07-17T06:17:15.668Z,74.82
2023-07-17T06:18:15.749Z,60.09
2023-07-17T06:19:16.868Z,72.30
2023-07-17T06:20:17.542Z,66.46
2023-07-17T06:21:16.126Z,72.53
2023-07-17T06:22:15.734Z,74.17
2023-07-17T06:23:15.703Z,72.48
2023-07-17T06:24:15.697Z,67.25
2023-07-17T06:25:15.722Z,74.25
2023-07-17T06:26:15.680Z,67.29
2023-07-17T06:27:15.661Z,71.12
2023-07-17T06:28:15.672Z,69.37
2023-07-17T06:29:15.558Z,74.56
2023-07-17T06:30:15.595Z,74.51
2023-07-17T06:31:15.891Z,69.41
2023-07-17T06:32:15.644Z,69.62
2023-07-17T06:33:15.600Z,72.95
2023-07-17T06:34:15.566Z,72.26
2023-07-17T06:35:15.554Z,74.72
2023-07-17T06:36:15.566Z,70.56
2023-07-17T06:37:15.563Z,69.95
2023-07-17T06:38:15.540Z,76.00
2023-07-17T06:39:15.917Z,70.12
2023-07-17T06:40:15.552Z,68.85
2023-07-17T06:41:15.658Z,71.33
2023-07-17T06:42:15.509Z,74.78
2023-07-17T06:43:15.509Z,74.21
2023-07-17T06:44:15.489Z,73.81
2023-07-17T06:45:15.514Z,68.36
2023-07-17T06:46:15.544Z,72.67
2023-07-17T06:47:29.686Z,72.58
2023-07-17T06:48:16.521Z,64.10
2023-07-17T06:49:15.516Z,71.56
2023-07-17T06:50:15.463Z,75.22
2023-07-17T06:51:15.475Z,62.17
2023-07-17T06:52:15.429Z,64.32
2023-07-17T06:53:15.435Z,71.76
2023-07-17T06:54:15.449Z,72.00
2023-07-17T06:55:15.449Z,67.49
2023-07-17T06:56:15.583Z,68.36
2023-07-17T06:57:15.421Z,57.97
2023-07-17T06:58:15.457Z,65.59
2023-07-17T06:59:15.417Z,73.53
2023-07-17T07:00:15.382Z,76.46
2023-07-17T07:01:15.432Z,71.14
2023-07-17T07:02:15.383Z,74.84
2023-07-17T07:03:15.419Z,68.96
2023-07-17T07:04:15.617Z,70.72
2023-07-17T07:05:15.898Z,73.96
2023-07-17T07:06:15.723Z,68.28
2023-07-17T07:07:18.164Z,70.42
2023-07-17T07:08:15.328Z,75.16
2023-07-17T07:09:15.356Z,61.16
2023-07-17T07:10:15.342Z,71.53
2023-07-17T07:11:15.326Z,75.64
2023-07-17T07:12:15.398Z,65.96
2023-07-17T07:13:15.338Z,76.98
2023-07-17T07:14:15.326Z,75.61
2023-07-17T07:15:15.292Z,71.94
2023-07-17T07:16:15.395Z,73.83
2023-07-17T07:17:15.316Z,66.25
2023-07-17T07:18:15.426Z,70.49
2023-07-17T07:19:15.311Z,68.95
2023-07-17T07:20:15.292Z,75.32
2023-07-17T07:21:15.309Z,74.93
2023-07-17T07:22:15.300Z,72.06
2023-07-17T07:23:15.390Z,60.86
2023-07-17T07:24:15.241Z,73.79
2023-07-17T07:25:15.245Z,67.07
2023-07-17T07:26:15.304Z,59.54
2023-07-17T07:27:15.255Z,69.45
2023-07-17T07:28:15.252Z,69.12
2023-07-17T07:29:15.213Z,68.19
2023-07-17T07:30:15.249Z,70.50
2023-07-17T07:31:15.299Z,65.32
2023-07-17T07:32:15.234Z,66.40
2023-07-17T07:33:15.191Z,76.45
2023-07-17T07:34:15.234Z,69.06
2023-07-17T07:35:15.182Z,72.59
2023-07-17T07:36:15.410Z,71.28
2023-07-17T07:37:15.181Z,69.34
2023-07-17T07:38:15.168Z,71.26
2023-07-17T07:39:15.202Z,69.52
2023-07-17T07:40:15.178Z,73.08
2023-07-17T07:41:15.156Z,64.22
2023-07-17T07:42:15.153Z,74.29
2023-07-17T07:43:15.171Z,75.66
2023-07-17T07:44:15.157Z,70.27
2023-07-17T07:45:15.175Z,70.37
2023-07-17T07:46:15.338Z,63.01
2023-07-17T07:47:15.151Z,66.99
2023-07-17T07:48:15.143Z,67.86
2023-07-17T07:49:15.148Z,68.05
2023-07-17T07:50:15.143Z,73.15
2023-07-17T07:51:17.077Z,70.40
2023-07-17T07:52:16.143Z,69.45
2023-07-17T07:53:15.096Z,69.44
2023-07-17T07:54:21.445Z,69.38
2023-07-17T07:55:17.206Z,66.27
2023-07-17T07:56:15.377Z,65.96
2023-07-17T07:57:15.064Z,69.67
2023-07-17T07:58:15.090Z,61.55
2023-07-17T07:59:15.083Z,66.55
2023-07-17T08:00:15.052Z,70.54
2023-07-17T08:01:15.062Z,69.37
2023-07-17T08:02:15.132Z,67.50
2023-07-17T08:03:15.163Z,70.40
2023-07-17T08:04:15.132Z,69.17
2023-07-17T08:05:15.041Z,68.25
2023-07-17T08:06:15.096Z,71.75
2023-07-17T08:07:15.033Z,72.21
2023-07-17T08:08:15.020Z,71.12
2023-07-17T08:09:15.043Z,63.12
2023-07-17T08:10:15.018Z,62.36
2023-07-17T08:11:15.017Z,72.98
2023-07-17T08:12:15.010Z,62.61
2023-07-17T08:13:15.004Z,60.47
2023-07-17T08:14:15.007Z,56.94
2023-07-17T08:15:15.033Z,69.34
2023-07-17T08:16:15.025Z,65.86
2023-07-17T08:17:14.969Z,68.57
2023-07-17T08:18:15.021Z,70.37
2023-07-17T08:19:14.958Z,67.98
2023-07-17T08:20:15.017Z,69.65
2023-07-17T08:21:14.956Z,64.98
2023-07-17T08:22:15.959Z,67.35
2023-07-17T08:23:15.009Z,71.06
2023-07-17T08:24:14.942Z,69.06
2023-07-17T08:25:15.955Z,62.66
2023-07-17T08:26:15.004Z,72.15
2023-07-17T08:27:14.928Z,65.93
2023-07-17T08:28:14.942Z,64.49
2023-07-17T08:29:14.944Z,69.21
2023-07-17T08:30:14.921Z,68.74
2023-07-17T08:31:14.929Z,69.64
2023-07-17T08:32:14.896Z,64.54
2023-07-17T08:33:14.892Z,72.64
2023-07-17T08:34:14.909Z,69.53
2023-07-17T08:35:14.906Z,72.72
2023-07-17T08:36:14.878Z,72.13
2023-07-17T08:37:14.869Z,68.78
2023-07-17T08:38:14.894Z,73.64
2023-07-17T08:39:14.878Z,73.81
2023-07-17T08:40:14.888Z,77.77
2023-07-17T08:41:14.909Z,74.80
2023-07-17T08:42:14.856Z,72.24
2023-07-17T08:43:14.817Z,72.13
2023-07-17T08:44:14.831Z,66.03
2023-07-17T08:45:14.832Z,65.49
2023-07-17T08:46:14.854Z,64.44
2023-07-17T08:47:14.823Z,74.30
2023-07-17T08:48:14.831Z,75.68
2023-07-17T08:49:15.788Z,72.81
2023-07-17T08:50:14.819Z,65.00
2023-07-17T08:51:14.825Z,66.13
2023-07-17T08:52:14.775Z,71.47
2023-07-17T08:53:14.789Z,66.66
2023-07-17T08:54:28.464Z,65.88
2023-07-17T08:55:16.809Z,68.38
2023-07-17T08:56:14.781Z,66.37
2023-07-17T08:57:14.776Z,71.67
2023-07-17T08:58:14.758Z,72.14
2023-07-17T08:59:14.768Z,66.32
2023-07-17T09:00:14.775Z,66.51
2023-07-17T09:01:14.775Z,67.32
2023-07-17T09:02:14.729Z,71.36
2023-07-17T09:03:15.223Z,64.20
2023-07-17T09:04:14.708Z,67.71
2023-07-17T09:05:14.738Z,73.20
2023-07-17T09:06:14.702Z,67.17
2023-07-17T09:07:14.717Z,70.43
2023-07-17T09:08:14.708Z,68.08
2023-07-17T09:09:14.689Z,70.26
2023-07-17T09:10:14.702Z,67.22
2023-07-17T09:11:14.751Z,71.97
2023-07-17T09:12:14.689Z,71.12
2023-07-17T09:13:14.686Z,68.99
2023-07-17T09:14:14.663Z,69.61
2023-07-17T09:15:14.691Z,68.04
2023-07-17T09:16:15.492Z,70.55
2023-07-17T09:17:14.690Z,66.26
2023-07-17T09:18:14.656Z,66.16
2023-07-17T09:19:15.637Z,66.70
2023-07-17T09:20:14.649Z,70.47
2023-07-17T09:21:14.739Z,65.09
2023-07-17T09:22:15.601Z,71.33
2023-07-17T09:23:14.730Z,69.19
2023-07-17T09:24:14.667Z,71.97
2023-07-17T09:25:14.612Z,69.25
2023-07-17T09:26:14.610Z,63.89
2023-07-17T09:27:14.590Z,72.76
2023-07-17T09:28:14.603Z,67.36
2023-07-17T09:29:14.584Z,71.37
2023-07-17T09:30:14.577Z,67.63
2023-07-17T09:31:14.640Z,74.41
2023-07-17T09:32:14.576Z,71.97
2023-07-17T09:33:14.565Z,66.62
2023-07-17T09:34:14.600Z,71.55
2023-07-17T09:35:14.613Z,68.16
2023-07-17T09:36:14.547Z,74.91
2023-07-17T09:37:14.529Z,61.23
2023-07-17T09:38:14.556Z,71.67
2023-07-17T09:39:14.520Z,63.59
2023-07-17T09:40:14.559Z,67.51
2023-07-17T09:41:14.521Z,64.60
2023-07-17T09:42:14.515Z,70.54
2023-07-17T09:43:14.502Z,67.86
2023-07-17T09:44:14.488Z,59.76
2023-07-17T09:45:14.481Z,72.68
2023-07-17T09:46:15.547Z,73.09
2023-07-17T09:47:14.529Z,72.74
2023-07-17T09:48:14.467Z,68.01
2023-07-17T09:49:14.474Z,70.28
2023-07-17T09:50:14.493Z,68.51
2023-07-17T09:51:14.542Z,67.53
2023-07-17T09:52:14.449Z,68.81
2023-07-17T09:53:14.433Z,70.65
2023-07-17T09:54:14.450Z,63.46
2023-07-17T09:55:14.441Z,70.41
2023-07-17T09:56:14.453Z,64.93
2023-07-17T09:57:14.434Z,66.05
2023-07-17T09:58:14.402Z,70.21
2023-07-17T09:59:14.435Z,66.48
2023-07-17T10:00:14.540Z,70.56
2023-07-17T10:01:14.463Z,70.30
2023-07-17T10:02:14.429Z,72.55
2023-07-17T10:03:14.654Z,70.91
2023-07-17T10:04:14.528Z,66.25
2023-07-17T10:05:14.386Z,69.08
2023-07-17T10:06:14.398Z,64.36
2023-07-17T10:07:14.387Z,63.43
2023-07-17T10:08:14.454Z,70.83
2023-07-17T10:09:14.371Z,65.42
2023-07-17T10:10:14.463Z,68.72
2023-07-17T10:11:14.419Z,66.71
2023-07-17T10:12:14.352Z,69.57
2023-07-17T10:13:14.353Z,69.98
2023-07-17T10:14:14.346Z,68.76
2023-07-17T10:15:14.374Z,70.68
2023-07-17T10:16:14.408Z,70.17
2023-07-17T10:17:14.366Z,68.22
2023-07-17T10:18:14.401Z,71.32
2023-07-17T10:19:14.402Z,67.97
2023-07-17T10:20:14.365Z,69.62
2023-07-17T10:21:14.450Z,68.68
2023-07-17T10:22:14.327Z,71.73
2023-07-17T10:23:14.364Z,68.95
2023-07-17T10:24:14.300Z,65.52
2023-07-17T10:25:14.295Z,73.68
2023-07-17T10:26:14.292Z,72.59
2023-07-17T10:27:14.296Z,73.41
2023-07-17T10:28:14.298Z,68.44
2023-07-17T10:29:14.264Z,69.14
2023-07-17T10:30:14.283Z,70.77
2023-07-17T10:31:14.352Z,70.34
2023-07-17T10:32:14.267Z,63.26
2023-07-17T10:33:14.257Z,70.21
2023-07-17T10:34:14.263Z,65.50
2023-07-17T10:35:14.249Z,65.41
2023-07-17T10:36:14.277Z,66.69
2023-07-17T10:37:14.229Z,72.80
2023-07-17T10:38:14.231Z,68.61
2023-07-17T10:39:14.221Z,70.43
2023-07-17T10:40:14.308Z,72.89
2023-07-17T10:41:14.312Z,67.61
2023-07-17T10:42:14.222Z,65.25
2023-07-17T10:43:14.241Z,72.62
2023-07-17T10:44:19.496Z,62.98
2023-07-17T10:45:15.224Z,71.23
2023-07-17T10:46:14.216Z,72.88
2023-07-17T10:47:14.195Z,66.65
2023-07-17T10:48:14.351Z,67.76
2023-07-17T10:49:14.211Z,70.49
2023-07-17T10:50:14.219Z,75.57
2023-07-17T10:51:14.258Z,69.65
2023-07-17T10:52:14.193Z,65.75
2023-07-17T10:53:14.162Z,69.63
2023-07-17T10:54:14.163Z,73.75
2023-07-17T10:55:14.143Z,74.30
2023-07-17T10:56:14.202Z,66.37
2023-07-17T10:57:14.123Z,71.02
2023-07-17T10:58:14.127Z,66.49
2023-07-17T10:59:14.121Z,68.65
2023-07-17T11:00:14.130Z,65.88
2023-07-17T11:01:14.152Z,70.52
2023-07-17T11:02:14.266Z,67.00
2023-07-17T11:03:14.125Z,72.23
2023-07-17T11:04:14.168Z,69.23
2023-07-17T11:05:15.016Z,72.31
2023-07-17T11:06:14.084Z,70.42
2023-07-17T11:07:14.115Z,69.63
2023-07-17T11:08:14.144Z,69.87
2023-07-17T11:09:14.089Z,68.71
2023-07-17T11:10:14.102Z,71.03
2023-07-17T11:11:14.083Z,66.43
2023-07-17T11:12:14.108Z,66.16
2023-07-17T11:13:14.086Z,70.19
2023-07-17T11:14:14.055Z,73.78
2023-07-17T11:15:14.046Z,69.35
2023-07-17T11:16:14.036Z,66.69
2023-07-17T11:17:14.098Z,68.83
2023-07-17T11:18:14.089Z,73.46
2023-07-17T11:19:14.051Z,68.18
2023-07-17T11:20:14.015Z,66.22
2023-07-17T11:21:14.051Z,65.04
2023-07-17T11:22:14.056Z,66.07
2023-07-17T11:23:14.138Z,69.85
2023-07-17T11:24:14.014Z,69.30
2023-07-17T11:25:13.994Z,68.37
2023-07-17T11:26:14.023Z,67.07
2023-07-17T11:27:14.021Z,65.97
2023-07-17T11:28:14.013Z,69.46
2023-07-17T11:29:13.977Z,66.87
2023-07-17T11:30:14.015Z,73.06
2023-07-17T11:31:14.127Z,69.56
2023-07-17T11:32:14.132Z,66.88
2023-07-17T11:33:13.953Z,68.80
2023-07-17T11:34:13.958Z,72.52
2023-07-17T11:35:13.968Z,71.69
2023-07-17T11:36:13.967Z,71.27
2023-07-17T11:37:13.977Z,67.93
2023-07-17T11:38:13.945Z,65.59
2023-07-17T11:39:13.977Z,67.70
2023-07-17T11:40:13.948Z,65.91
2023-07-17T11:41:13.974Z,67.53
2023-07-17T11:42:13.938Z,65.67
2023-07-17T11:43:13.926Z,69.36
2023-07-17T11:44:13.913Z,67.66
2023-07-17T11:45:13.924Z,70.14
2023-07-17T11:46:13.966Z,65.02
2023-07-17T11:47:13.925Z,63.28
2023-07-17T11:48:13.923Z,71.02
2023-07-17T11:49:13.938Z,62.34
2023-07-17T11:50:13.920Z,69.21
2023-07-17T11:51:13.889Z,63.01
2023-07-17T11:52:13.921Z,63.03
2023-07-17T11:53:13.960Z,68.01
2023-07-17T11:54:13.897Z,67.71
2023-07-17T11:55:13.887Z,66.61
2023-07-17T11:56:13.877Z,67.78
2023-07-17T11:57:13.906Z,61.19
2023-07-17T11:58:13.881Z,64.04
2023-07-17T11:59:13.869Z,70.30
2023-07-17T12:00:13.860Z,63.49
2023-07-17T12:01:13.840Z,65.31
2023-07-17T12:02:13.894Z,69.16
2023-07-17T12:03:13.856Z,65.25
2023-07-17T12:04:13.913Z,69.12
2023-07-17T12:05:13.813Z,65.91
2023-07-17T12:06:13.835Z,64.92
2023-07-17T12:07:13.817Z,68.71
2023-07-17T12:08:13.856Z,69.69
2023-07-17T12:09:13.837Z,65.34
2023-07-17T12:10:13.889Z,66.62
2023-07-17T12:11:13.878Z,67.82
2023-07-17T12:12:13.845Z,71.89
2023-07-17T12:13:13.837Z,72.49
2023-07-17T12:14:13.828Z,68.10
2023-07-17T12:15:13.831Z,66.65
2023-07-17T12:16:13.841Z,68.46
2023-07-17T12:17:13.777Z,66.70
2023-07-17T12:18:13.777Z,67.82
2023-07-17T12:19:13.822Z,66.00
2023-07-17T12:20:13.882Z,75.09
2023-07-17T12:21:13.764Z,69.13
2023-07-17T12:23:14.890Z,68.06
2023-07-17T12:24:14.670Z,67.36
2023-07-17T12:25:13.750Z,69.86
2023-07-17T12:26:13.778Z,69.35
2023-07-17T12:27:13.737Z,67.13
2023-07-17T12:28:13.752Z,71.53
2023-07-17T12:29:13.728Z,68.98
2023-07-17T12:30:13.834Z,68.55
2023-07-17T12:31:13.716Z,74.33
2023-07-17T12:32:13.719Z,69.52
2023-07-17T12:33:13.772Z,71.14
2023-07-17T12:34:13.702Z,69.95
2023-07-17T12:35:13.722Z,73.87
2023-07-17T12:36:13.691Z,72.85
2023-07-17T12:37:13.674Z,61.07
2023-07-17T12:38:13.690Z,69.05
2023-07-17T12:39:13.704Z,72.15
2023-07-17T12:40:13.713Z,70.19
2023-07-17T12:41:13.690Z,72.52
2023-07-17T12:42:13.681Z,70.97
2023-07-17T12:43:13.672Z,70.11
2023-07-17T12:44:13.668Z,67.03
2023-07-17T12:45:13.653Z,71.36
2023-07-17T12:46:13.750Z,68.11
2023-07-17T12:47:13.648Z,64.64
2023-07-17T12:48:13.759Z,70.51
2023-07-17T12:49:13.653Z,73.13
2023-07-17T12:50:13.636Z,73.90
2023-07-17T12:51:13.672Z,68.75
2023-07-17T12:52:13.614Z,69.98
2023-07-17T12:53:13.608Z,71.41